createdAt,value
2023-04-17T00:01:07.963Z,10.69
2023-04-17T00:03:35.324Z,10.72
2023-04-17T00:06:03.495Z,10.58
2023-04-17T00:08:31.280Z,10.57
2023-04-17T00:11:07.227Z,10.57
2023-04-17T00:13:36.822Z,10.50
2023-04-17T00:16:04.215Z,10.72
2023-04-17T00:18:31.558Z,10.61
2023-04-17T00:20:58.815Z,10.69
2023-04-17T00:23:26.184Z,10.70
2023-04-17T00:25:53.422Z,10.47
2023-04-17T00:28:20.733Z,10.14
2023-04-17T00:30:48.201Z,9.93
2023-04-17T00:33:15.815Z,10.29
2023-04-17T00:35:43.168Z,10.45
2023-04-17T00:38:10.852Z,10.44
2023-04-17T00:40:38.099Z,10.12
2023-04-17T00:43:07.897Z,10.28
2023-04-17T00:45:35.629Z,10.16
2023-04-17T00:48:04.848Z,9.98
2023-04-17T00:50:33.049Z,10.24
2023-04-17T00:53:00.859Z,10.32
2023-04-17T00:55:29.087Z,10.34
2023-04-17T00:57:56.898Z,10.38
2023-04-17T01:00:24.704Z,10.28
2023-04-17T01:02:52.511Z,10.20
2023-04-17T01:05:20.648Z,10.12
2023-04-17T01:07:48.340Z,10.30
2023-04-17T01:10:15.743Z,10.16
2023-04-17T01:12:46.697Z,10.08
2023-04-17T01:15:14.142Z,10.14
2023-04-17T01:17:41.511Z,10.19
2023-04-17T01:20:10.839Z,10.11
2023-04-17T01:22:38.172Z,9.94
2023-04-17T01:25:06.654Z,10.04
2023-04-17T01:27:36.815Z,9.87
2023-04-17T01:30:04.430Z,9.79
2023-04-17T01:32:36.579Z,9.77
2023-04-17T01:35:04.141Z,9.78
2023-04-17T01:37:31.509Z,9.74
2023-04-17T01:39:59.270Z,9.84
2023-04-17T01:42:26.895Z,9.75
2023-04-17T01:44:54.161Z,9.75
2023-04-17T01:47:21.417Z,9.95
2023-04-17T01:49:48.666Z,9.96
2023-04-17T01:52:16.012Z,10.00
2023-04-17T01:54:43.473Z,10.03
2023-04-17T01:57:10.956Z,10.29
2023-04-17T01:59:38.219Z,9.93
2023-04-17T02:02:05.872Z,9.50
2023-04-17T02:04:33.286Z,9.64
2023-04-17T02:07:00.647Z,9.48
2023-04-17T02:09:27.912Z,9.29
2023-04-17T02:11:56.250Z,9.26
2023-04-17T02:14:23.594Z,9.41
2023-04-17T02:16:50.961Z,9.26
2023-04-17T02:19:18.185Z,9.46
2023-04-17T02:21:45.648Z,9.61
2023-04-17T02:24:12.957Z,9.40
2023-04-17T02:26:40.677Z,9.33
2023-04-17T02:29:07.968Z,9.35
2023-04-17T02:31:36.747Z,9.42
2023-04-17T02:34:04.410Z,9.29
2023-04-17T02:36:32.201Z,9.24
2023-04-17T02:38:59.587Z,9.21
2023-04-17T02:41:26.799Z,9.38
2023-04-17T02:43:54.359Z,9.23
2023-04-17T02:46:21.650Z,9.20
2023-04-17T02:48:48.942Z,9.36
2023-04-17T02:51:16.238Z,9.42
2023-04-17T02:53:43.562Z,9.50
2023-04-17T02:56:10.874Z,9.49
2023-04-17T02:58:39.895Z,9.45
2023-04-17T03:01:09.028Z,9.24
2023-04-17T03:03:41.376Z,9.33
2023-04-17T03:06:11.782Z,9.32
2023-04-17T03:08:39.086Z,9.12
2023-04-17T03:11:06.645Z,9.26
2023-04-17T03:13:36.498Z,8.99
2023-04-17T03:16:04.795Z,9.03
2023-04-17T03:18:35.896Z,9.03
2023-04-17T03:21:03.519Z,9.26
2023-04-17T03:23:30.790Z,9.13
2023-04-17T03:25:58.564Z,9.16
2023-04-17T03:28:26.124Z,9.18
2023-04-17T03:30:54.936Z,9.25
2023-04-17T03:33:22.637Z,9.24
2023-04-17T03:35:49.944Z,9.27
2023-04-17T03:38:17.808Z,9.23
2023-04-17T03:40:45.288Z,9.09
2023-04-17T03:43:12.933Z,8.99
2023-04-17T03:45:40.247Z,9.06
2023-04-17T03:48:07.616Z,9.05
2023-04-17T03:50:36.128Z,9.18
2023-04-17T03:53:03.472Z,9.40
2023-04-17T03:55:31.692Z,9.45
2023-04-17T03:57:59.259Z,9.15
2023-04-17T04:00:31.679Z,9.15
2023-04-17T04:03:04.459Z,9.10
2023-04-17T04:05:38.608Z,9.18
2023-04-17T04:08:07.493Z,9.34
2023-04-17T04:10:44.288Z,9.50
2023-04-17T04:13:14.043Z,9.24
2023-04-17T04:15:44.519Z,8.89
2023-04-17T04:18:12.608Z,8.87
2023-04-17T04:20:39.918Z,8.97
2023-04-17T04:23:16.653Z,8.84
2023-04-17T04:25:45.065Z,8.87
2023-04-17T04:28:24.025Z,9.08
2023-04-17T04:30:53.007Z,9.13
2023-04-17T04:33:22.002Z,9.14
2023-04-17T04:35:49.489Z,8.96
2023-04-17T04:38:17.691Z,9.05
2023-04-17T04:40:49.948Z,8.75
2023-04-17T04:43:18.152Z,8.56
2023-04-17T04:45:47.893Z,8.58
2023-04-17T04:48:15.489Z,8.73
2023-04-17T04:50:42.832Z,9.16
2023-04-17T04:53:10.440Z,9.09
2023-04-17T04:55:49.194Z,8.89
2023-04-17T04:58:16.429Z,8.79
2023-04-17T05:00:45.575Z,8.78
2023-04-17T05:03:19.597Z,9.18
2023-04-17T05:05:48.235Z,8.89
2023-04-17T05:08:17.500Z,8.97
2023-04-17T05:10:53.867Z,9.13
2023-04-17T05:13:21.161Z,9.07
2023-04-17T05:15:49.191Z,9.00
2023-04-17T05:18:19.226Z,9.05
2023-04-17T05:20:46.798Z,9.22
2023-04-17T05:23:14.161Z,9.15
2023-04-17T05:25:41.517Z,8.97
2023-04-17T05:28:09.200Z,9.10
2023-04-17T05:30:36.665Z,9.12
2023-04-17T05:33:29.810Z,9.13
2023-04-17T05:36:01.166Z,9.10
2023-04-17T05:38:32.165Z,8.98
2023-04-17T05:40:59.744Z,9.03
2023-04-17T05:43:27.056Z,9.09
2023-04-17T05:45:55.076Z,9.04
2023-04-17T05:48:22.637Z,8.86
2023-04-17T05:50:51.792Z,9.10
2023-04-17T05:53:19.343Z,9.31
2023-04-17T05:55:50.890Z,9.13
2023-04-17T05:58:23.702Z,8.99
2023-04-17T06:00:54.720Z,8.79
2023-04-17T06:03:22.314Z,9.03
2023-04-17T06:05:57.256Z,9.24
2023-04-17T06:08:25.525Z,9.56
2023-04-17T06:10:53.196Z,9.44
2023-04-17T06:13:21.270Z,9.40
2023-04-17T06:15:51.563Z,9.62
2023-04-17T06:18:19.342Z,9.13
2023-04-17T06:20:46.903Z,9.22
2023-04-17T06:23:14.191Z,9.36
2023-04-17T06:25:42.696Z,9.37
2023-04-17T06:28:10.450Z,9.27
2023-04-17T06:30:38.223Z,9.72
2023-04-17T06:33:06.952Z,9.45
2023-04-17T06:35:36.430Z,9.25
2023-04-17T06:38:15.049Z,9.34
2023-04-17T06:40:44.209Z,9.30
2023-04-17T06:43:12.214Z,9.45
2023-04-17T06:45:43.089Z,9.29
2023-04-17T06:48:10.602Z,9.15
2023-04-17T06:50:39.518Z,9.47
2023-04-17T06:53:07.354Z,9.34
2023-04-17T06:55:34.780Z,9.00
2023-04-17T06:58:03.082Z,9.12
2023-04-17T07:00:30.473Z,9.07
2023-04-17T07:02:57.994Z,9.35
2023-04-17T07:05:25.475Z,9.55
2023-04-17T07:07:54.475Z,9.74
2023-04-17T07:10:21.760Z,9.59
2023-04-17T07:12:49.103Z,9.91
2023-04-17T07:15:16.674Z,9.79
2023-04-17T07:17:44.093Z,10.00
2023-04-17T07:20:11.851Z,9.67
2023-04-17T07:22:40.135Z,9.46
2023-04-17T07:25:07.920Z,9.78
2023-04-17T07:27:36.397Z,9.37
2023-04-17T07:30:04.215Z,9.41
2023-04-17T07:32:32.323Z,9.51
2023-04-17T07:34:59.634Z,9.30
2023-04-17T07:37:27.128Z,9.30
2023-04-17T07:39:54.777Z,9.49
2023-04-17T07:42:22.143Z,9.79
2023-04-17T07:44:49.713Z,9.65
2023-04-17T07:47:17.056Z,9.63
2023-04-17T07:49:48.742Z,9.37
2023-04-17T07:52:18.161Z,9.13
2023-04-17T07:54:45.669Z,9.26
2023-04-17T07:57:14.958Z,9.23
2023-04-17T07:59:42.326Z,9.07
2023-04-17T08:02:10.038Z,9.35
2023-04-17T08:04:40.337Z,9.77
2023-04-17T08:07:10.658Z,9.54
2023-04-17T08:09:38.635Z,9.44
2023-04-17T08:12:06.420Z,9.98
2023-04-17T08:14:33.804Z,9.81
2023-04-17T08:17:01.893Z,9.80
2023-04-17T08:19:30.006Z,9.75
2023-04-17T08:22:04.804Z,9.26
2023-04-17T08:24:32.100Z,9.30
2023-04-17T08:26:59.458Z,9.60
2023-04-17T08:29:26.991Z,9.65
2023-04-17T08:32:10.357Z,10.03
2023-04-17T08:34:40.648Z,10.08
2023-04-17T08:37:07.928Z,10.04
2023-04-17T08:39:35.407Z,10.20
2023-04-17T08:42:07.964Z,10.01
2023-04-17T08:44:35.853Z,10.03
2023-04-17T08:47:04.657Z,10.14
2023-04-17T08:49:35.916Z,10.20
2023-04-17T08:52:04.550Z,9.77
2023-04-17T08:54:33.524Z,9.54
2023-04-17T08:57:04.968Z,9.74
2023-04-17T08:59:32.541Z,9.68
2023-04-17T09:02:07.584Z,10.11
2023-04-17T09:04:43.156Z,9.88
2023-04-17T09:07:12.335Z,9.98
2023-04-17T09:09:56.401Z,10.22
2023-04-17T09:12:25.454Z,10.57
2023-04-17T09:14:53.331Z,10.65
2023-04-17T09:17:21.572Z,10.89
2023-04-17T09:20:12.386Z,10.52
2023-04-17T09:22:40.616Z,10.70
2023-04-17T09:25:18.713Z,10.45
2023-04-17T09:27:46.306Z,10.13
2023-04-17T09:30:13.845Z,10.23
2023-04-17T09:32:41.260Z,10.60
2023-04-17T09:35:08.958Z,10.48
2023-04-17T09:37:49.634Z,10.32
2023-04-17T09:40:18.817Z,10.29
2023-04-17T09:43:00.650Z,10.72
2023-04-17T09:45:33.455Z,10.95
2023-04-17T09:48:01.326Z,10.60
2023-04-17T09:50:29.049Z,10.48
2023-04-17T09:52:56.628Z,10.50
2023-04-17T09:55:25.084Z,10.55
2023-04-17T09:57:56.157Z,10.71
2023-04-17T10:00:27.102Z,10.68
2023-04-17T10:02:56.154Z,10.77
2023-04-17T10:05:26.081Z,10.96
2023-04-17T10:07:53.376Z,11.03
2023-04-17T10:10:26.045Z,10.68
2023-04-17T10:12:59.383Z,10.50
2023-04-17T10:15:27.320Z,10.43
2023-04-17T10:17:56.687Z,10.88
2023-04-17T10:20:24.008Z,10.69
2023-04-17T10:22:56.522Z,10.49
2023-04-17T10:25:28.392Z,10.14
2023-04-17T10:28:00.503Z,10.26
2023-04-17T10:30:54.712Z,10.44
2023-04-17T10:33:25.060Z,10.74
2023-04-17T10:35:53.533Z,10.91
2023-04-17T10:38:36.444Z,10.62
2023-04-17T10:41:08.940Z,10.42
2023-04-17T10:43:43.624Z,10.80
2023-04-17T10:46:14.883Z,11.09
2023-04-17T10:48:52.320Z,10.98
2023-04-17T10:51:27.175Z,11.01
2023-04-17T10:53:54.694Z,10.70
2023-04-17T10:56:27.039Z,10.29
2023-04-17T10:59:09.015Z,10.36
2023-04-17T11:01:42.831Z,10.64
2023-04-17T11:04:11.406Z,10.76
2023-04-17T11:06:43.040Z,10.72
2023-04-17T11:09:11.050Z,10.28
2023-04-17T11:11:44.115Z,10.30
2023-04-17T11:14:17.743Z,10.43
2023-04-17T11:16:47.037Z,10.56
2023-04-17T11:19:19.153Z,10.49
2023-04-17T11:21:48.243Z,10.64
2023-04-17T11:24:28.566Z,11.02
2023-04-17T11:26:58.324Z,10.54
2023-04-17T11:29:26.396Z,10.66
2023-04-17T11:31:55.522Z,10.90
2023-04-17T11:34:23.641Z,10.55
2023-04-17T11:36:51.398Z,10.72
2023-04-17T11:39:19.964Z,11.10
2023-04-17T11:41:47.413Z,10.85
2023-04-17T11:44:15.631Z,11.12
2023-04-17T11:46:43.126Z,11.01
2023-04-17T11:49:11.787Z,10.91
2023-04-17T11:51:39.387Z,11.11
2023-04-17T11:54:06.654Z,10.88
2023-04-17T11:56:34.229Z,10.90
2023-04-17T11:59:03.772Z,10.78
2023-04-17T12:01:31.415Z,10.62
2023-04-17T12:03:59.394Z,10.53
2023-04-17T12:06:37.326Z,10.17
2023-04-17T12:09:07.069Z,10.22
2023-04-17T12:11:36.249Z,10.51
2023-04-17T12:14:05.453Z,10.67
2023-04-17T12:16:32.737Z,10.47
2023-04-17T12:19:00.298Z,10.43
2023-04-17T12:21:27.721Z,10.73
2023-04-17T12:23:55.261Z,11.14
2023-04-17T12:26:22.500Z,11.02
2023-04-17T12:28:49.835Z,10.66
2023-04-17T12:31:17.316Z,11.00
2023-04-17T12:33:44.738Z,10.72
2023-04-17T12:36:12.093Z,10.74
2023-04-17T12:38:39.478Z,10.85
2023-04-17T12:41:06.887Z,10.82
2023-04-17T12:43:35.808Z,11.05
2023-04-17T12:46:03.338Z,11.17
2023-04-17T12:48:32.838Z,10.68
2023-04-17T12:51:00.497Z,10.69
2023-04-17T12:53:27.790Z,11.02
2023-04-17T12:55:55.060Z,10.75
2023-04-17T12:58:22.375Z,10.80
2023-04-17T13:00:49.671Z,10.94
2023-04-17T13:03:17.086Z,10.99
2023-04-17T13:05:44.566Z,11.37
2023-04-17T13:08:14.830Z,11.31
2023-04-17T13:10:42.587Z,10.94
2023-04-17T13:13:10.275Z,11.10
2023-04-17T13:15:37.653Z,10.95
2023-04-17T13:18:05.404Z,10.99
2023-04-17T13:20:32.730Z,11.14
2023-04-17T13:23:00.077Z,10.83
2023-04-17T13:25:27.854Z,10.95
2023-04-17T13:27:55.695Z,10.93
2023-04-17T13:30:23.045Z,10.61
2023-04-17T13:32:50.466Z,10.74
2023-04-17T13:35:18.061Z,10.74
2023-04-17T13:37:45.329Z,10.85
2023-04-17T13:40:12.997Z,11.07
2023-04-17T13:42:40.488Z,10.73
2023-04-17T13:45:08.358Z,10.83
2023-04-17T13:47:35.669Z,10.77
2023-04-17T13:50:03.496Z,10.75
2023-04-17T13:52:30.791Z,10.90
2023-04-17T13:54:58.016Z,10.71
2023-04-17T13:57:25.280Z,10.60
2023-04-17T13:59:52.619Z,10.77
2023-04-17T14:02:20.087Z,10.85
2023-04-17T14:04:47.906Z,10.83
2023-04-17T14:07:16.601Z,10.86
2023-04-17T14:09:43.918Z,11.26
2023-04-17T14:12:11.213Z,11.38
2023-04-17T14:14:38.441Z,11.28
2023-04-17T14:17:05.944Z,11.24
2023-04-17T14:19:33.239Z,11.13
2023-04-17T14:22:00.530Z,11.10
2023-04-17T14:24:27.821Z,11.29
2023-04-17T14:26:57.757Z,11.38
2023-04-17T14:29:25.246Z,11.26
2023-04-17T14:31:53.374Z,10.99
2023-04-17T14:34:20.850Z,11.05
2023-04-17T14:36:48.767Z,11.24
2023-04-17T14:39:16.161Z,11.49
2023-04-17T14:41:43.570Z,11.70
2023-04-17T14:44:11.156Z,11.29
2023-04-17T14:46:38.734Z,11.22
2023-04-17T14:49:06.044Z,11.29
2023-04-17T14:51:33.298Z,11.37
2023-04-17T14:54:00.605Z,11.23
2023-04-17T14:56:27.892Z,11.48
2023-04-17T14:58:55.284Z,11.55
2023-04-17T15:01:22.546Z,11.93
2023-04-17T15:03:49.916Z,11.50
2023-04-17T15:06:18.780Z,11.52
2023-04-17T15:08:46.271Z,11.58
2023-04-17T15:11:14.118Z,11.71
2023-04-17T15:13:41.336Z,12.02
2023-04-17T15:16:09.259Z,12.21
2023-04-17T15:18:36.763Z,12.02
2023-04-17T15:21:04.081Z,11.80
2023-04-17T15:23:31.657Z,11.89
2023-04-17T15:26:01.157Z,12.11
2023-04-17T15:28:28.511Z,12.21
2023-04-17T15:30:56.592Z,12.22
2023-04-17T15:33:23.908Z,12.84
2023-04-17T15:35:58.901Z,12.43
2023-04-17T15:38:26.853Z,12.31
2023-04-17T15:40:54.513Z,12.27
2023-04-17T15:43:22.022Z,12.13
2023-04-17T15:45:49.510Z,12.15
2023-04-17T15:48:17.037Z,12.17
2023-04-17T15:50:44.322Z,12.34
2023-04-17T15:53:13.181Z,12.46
2023-04-17T15:55:41.251Z,12.33
2023-04-17T15:58:08.744Z,11.95
2023-04-17T16:00:36.009Z,12.24
2023-04-17T16:03:03.643Z,12.12
2023-04-17T16:05:31.192Z,12.20
2023-04-17T16:07:58.418Z,12.45
2023-04-17T16:10:25.634Z,12.36
2023-04-17T16:12:52.977Z,12.49
2023-04-17T16:15:20.359Z,12.32
2023-04-17T16:17:48.888Z,12.31
2023-04-17T16:20:16.507Z,12.18
2023-04-17T16:22:43.904Z,12.19
2023-04-17T16:25:13.988Z,12.07
2023-04-17T16:27:41.295Z,12.00
2023-04-17T16:30:09.520Z,12.28
2023-04-17T16:32:36.874Z,12.54
2023-04-17T16:35:04.434Z,12.41
2023-04-17T16:37:31.649Z,12.42
2023-04-17T16:40:04.408Z,12.46
2023-04-17T16:42:32.428Z,12.46
2023-04-17T16:44:59.984Z,12.57
2023-04-17T16:47:30.383Z,12.49
2023-04-17T16:49:57.703Z,12.74
2023-04-17T16:52:25.153Z,12.84
2023-04-17T16:54:52.483Z,12.72
2023-04-17T16:57:19.782Z,12.46
2023-04-17T16:59:47.004Z,12.63
2023-04-17T17:02:14.312Z,12.62
2023-04-17T17:04:41.773Z,12.34
2023-04-17T17:07:09.252Z,12.41
2023-04-17T17:09:36.627Z,12.42
2023-04-17T17:12:04.171Z,12.56
2023-04-17T17:14:31.467Z,12.41
2023-04-17T17:16:58.891Z,12.37
2023-04-17T17:19:26.134Z,12.34
2023-04-17T17:21:55.284Z,12.43
2023-04-17T17:24:23.434Z,12.26
2023-04-17T17:26:50.715Z,12.33
2023-04-17T17:29:18.092Z,12.53
2023-04-17T17:31:45.448Z,12.55
2023-04-17T17:36:43.062Z,12.83
2023-04-17T17:39:10.484Z,12.72
2023-04-17T17:41:37.956Z,12.55
2023-04-17T17:44:05.248Z,12.27
2023-04-17T17:46:34.347Z,12.30
2023-04-17T17:49:01.677Z,12.39
2023-04-17T17:51:29.073Z,12.31
2023-04-17T17:53:56.309Z,12.27
2023-04-17T17:56:23.735Z,12.28
2023-04-17T17:58:51.186Z,12.17
2023-04-17T18:01:18.501Z,12.11
2023-04-17T18:03:48.749Z,12.10
2023-04-17T18:06:17.132Z,12.09
2023-04-17T18:08:44.480Z,12.12
2023-04-17T18:11:13.747Z,12.07
2023-04-17T18:13:41.023Z,12.12
2023-04-17T18:16:08.629Z,12.17
2023-04-17T18:18:36.132Z,12.24
2023-04-17T18:21:07.424Z,11.92
2023-04-17T18:23:35.514Z,11.96
2023-04-17T18:26:03.936Z,12.13
2023-04-17T18:28:32.756Z,12.09
2023-04-17T18:31:00.119Z,12.08
2023-04-17T18:33:28.974Z,11.81
2023-04-17T18:35:56.544Z,11.77
2023-04-17T18:38:23.879Z,11.76
2023-04-17T18:40:59.435Z,11.86
2023-04-17T18:43:27.686Z,11.79
2023-04-17T18:45:54.977Z,11.87
2023-04-17T18:48:23.765Z,11.73
2023-04-17T18:50:54.610Z,11.71
2023-04-17T18:53:22.350Z,11.77
2023-04-17T18:55:49.706Z,11.69
2023-04-17T18:58:20.198Z,11.77
2023-04-17T19:00:48.078Z,11.86
2023-04-17T19:03:15.398Z,11.92
2023-04-17T19:05:42.683Z,11.75
2023-04-17T19:08:10.025Z,11.67
2023-04-17T19:10:39.924Z,11.85
2023-04-17T19:13:09.849Z,11.78
2023-04-17T19:15:37.387Z,11.78
2023-04-17T19:18:06.603Z,11.71
2023-04-17T19:20:34.265Z,11.71
2023-04-17T19:23:01.989Z,11.61
2023-04-17T19:25:29.594Z,11.51
2023-04-17T19:27:56.822Z,11.56
2023-04-17T19:30:24.242Z,11.62
2023-04-17T19:32:51.664Z,11.79
2023-04-17T19:35:19.086Z,11.59
2023-04-17T19:37:46.544Z,11.53
2023-04-17T19:40:24.505Z,11.66
2023-04-17T19:42:53.159Z,11.69
2023-04-17T19:45:23.285Z,11.62
2023-04-17T19:47:56.240Z,11.66
2023-04-17T19:50:26.455Z,11.68
2023-04-17T19:52:54.353Z,11.55
2023-04-17T19:55:21.822Z,11.68
2023-04-17T19:57:50.414Z,11.59
2023-04-17T20:00:17.888Z,11.42
2023-04-17T20:02:45.376Z,11.54
2023-04-17T20:05:12.697Z,11.47
2023-04-17T20:07:40.037Z,11.45
2023-04-17T20:10:07.694Z,11.35
2023-04-17T20:12:35.197Z,11.29
2023-04-17T20:15:02.537Z,11.43
2023-04-17T20:17:29.952Z,11.31
2023-04-17T20:19:57.242Z,11.19
2023-04-17T20:22:24.526Z,11.28
2023-04-17T20:24:51.853Z,11.37
2023-04-17T20:27:19.197Z,11.28
2023-04-17T20:29:46.802Z,11.21
2023-04-17T20:32:14.124Z,11.21
2023-04-17T20:34:41.392Z,11.55
2023-04-17T20:37:08.764Z,11.31
2023-04-17T20:39:36.114Z,11.27
2023-04-17T20:42:03.400Z,11.22
2023-04-17T20:44:32.057Z,11.16
2023-04-17T20:46:59.455Z,11.31
2023-04-17T20:49:26.693Z,11.50
2023-04-17T20:51:54.163Z,11.25
2023-04-17T20:54:23.133Z,11.16
2023-04-17T20:56:50.526Z,11.27
2023-04-17T20:59:17.785Z,11.12
2023-04-17T21:01:45.075Z,11.16
2023-04-17T21:04:12.665Z,11.04
2023-04-17T21:06:40.428Z,10.93
2023-04-17T21:09:08.785Z,10.92
2023-04-17T21:11:36.048Z,10.93
2023-04-17T21:14:03.818Z,10.88
2023-04-17T21:16:31.364Z,10.96
2023-04-17T21:18:58.733Z,11.05
2023-04-17T21:21:26.858Z,11.03
2023-04-17T21:23:54.143Z,10.92
2023-04-17T21:26:21.919Z,10.90
2023-04-17T21:28:49.120Z,11.21
2023-04-17T21:31:16.536Z,10.92
2023-04-17T21:33:44.014Z,10.84
2023-04-17T21:36:11.426Z,11.10
2023-04-17T21:38:39.271Z,10.99
2023-04-17T21:41:06.539Z,10.75
2023-04-17T21:43:33.903Z,10.96
2023-04-17T21:46:01.345Z,11.04
2023-04-17T21:48:28.726Z,10.81
2023-04-17T21:51:02.401Z,11.15
2023-04-17T21:53:30.359Z,10.91
2023-04-17T21:55:57.766Z,11.21
2023-04-17T21:58:25.073Z,11.17
2023-04-17T22:00:52.414Z,11.04
2023-04-17T22:03:21.193Z,11.02
2023-04-17T22:05:52.701Z,11.04
2023-04-17T22:08:20.026Z,11.27
2023-04-17T22:10:47.283Z,11.26
2023-04-17T22:13:15.929Z,11.09
2023-04-17T22:15:43.991Z,11.00
2023-04-17T22:18:11.213Z,10.88
2023-04-17T22:20:38.514Z,11.08
2023-04-17T22:23:05.913Z,11.11
2023-04-17T22:25:33.217Z,11.38
2023-04-17T22:28:00.495Z,10.94
2023-04-17T22:30:27.749Z,11.11
2023-04-17T22:32:56.505Z,11.26
2023-04-17T22:35:23.851Z,11.18
2023-04-17T22:37:51.144Z,11.07
2023-04-17T22:40:18.548Z,11.05
2023-04-17T22:42:45.996Z,11.19
2023-04-17T22:45:13.203Z,11.13
2023-04-17T22:47:41.153Z,11.16
2023-04-17T22:50:10.823Z,10.94
2023-04-17T22:52:38.116Z,10.88
2023-04-17T22:55:06.487Z,10.91
2023-04-17T22:57:34.135Z,10.92
2023-04-17T23:00:01.550Z,11.00
2023-04-17T23:02:28.974Z,10.97
2023-04-17T23:04:56.393Z,10.92
2023-04-17T23:07:23.821Z,11.28
2023-04-17T23:09:51.047Z,11.16
2023-04-17T23:12:18.365Z,11.05
2023-04-17T23:14:46.120Z,11.17
2023-04-17T23:17:13.367Z,11.41
2023-04-17T23:19:40.783Z,11.41
2023-04-17T23:22:08.202Z,11.08
2023-04-17T23:24:35.643Z,11.14
2023-04-17T23:27:02.958Z,11.16
2023-04-17T23:29:30.408Z,11.11
2023-04-17T23:31:58.881Z,11.10
2023-04-17T23:34:27.569Z,10.96
2023-04-17T23:36:54.955Z,10.79
2023-04-17T23:39:22.442Z,10.79
2023-04-17T23:41:52.310Z,10.57
2023-04-17T23:44:19.630Z,10.81
2023-04-17T23:46:47.017Z,10.88
2023-04-17T23:49:14.362Z,10.59
2023-04-17T23:51:41.764Z,10.70
2023-04-17T23:54:09.025Z,10.42
2023-04-17T23:56:36.298Z,10.28
2023-04-17T23:59:03.559Z,10.39
